Wheelerville, New York
Current Conditions -  °F | °C
As of 12:35 AM on Thursday 27 Nov 2014 (Local Time) from KNY0 Reporting Station
Overcast Overcast  
Wind Chill: 29°   Ceiling: 300
Heat Index: 29°   Visibility: 2mi
Dew Point: 28°   Wind: 0mph
Humidity: 97%   Direction: NA
Pressure: 29.88"   Gusts: NA
Location:  43.2783°N, 74.5481°W
Report Text: KNY0 270535Z AUTO 00000KT 2SM BKN003 BKN014 OVC029 M02/M02 A2988 RMK AO2 P0001 T10171021
Loading
Personal Weather Stations






























Interactive Weather Map New forecast layout! Learn more

10-Day Weather Forecast

Advertisements
Track Severe Weather on mobile